createdAt,value
2023-01-19T00:00:54.832Z,0.64
2023-01-19T00:03:45.702Z,0.63
2023-01-19T00:06:36.566Z,0.64
2023-01-19T00:13:16.767Z,0.68
2023-01-19T00:16:08.346Z,0.70
2023-01-19T00:18:58.905Z,0.71
2023-01-19T00:25:13.311Z,0.68
2023-01-19T00:28:09.824Z,0.68
2023-01-19T00:31:01.524Z,0.68
2023-01-19T00:34:14.554Z,0.69
2023-01-19T00:37:05.751Z,0.69
2023-01-19T00:39:57.898Z,0.70
2023-01-19T00:42:48.755Z,0.69
2023-01-19T00:45:40.576Z,0.67
2023-01-19T00:48:51.272Z,0.65
2023-01-19T00:55:44.705Z,0.60
2023-01-19T00:58:57.712Z,0.60
2023-01-19T01:02:08.773Z,0.59
2023-01-19T01:05:33.132Z,0.58
2023-01-19T01:08:24.439Z,0.58
2023-01-19T01:11:27.870Z,0.59
2023-01-19T01:14:21.657Z,0.58
2023-01-19T01:17:25.220Z,0.57
2023-01-19T01:20:20.299Z,0.55
2023-01-19T01:23:37.284Z,0.52
2023-01-19T01:26:28.470Z,0.51
2023-01-19T01:29:27.130Z,0.50
2023-01-19T01:32:39.605Z,0.51
2023-01-19T01:39:46.483Z,0.61
2023-01-19T01:42:58.235Z,0.67
2023-01-19T01:49:51.624Z,0.77
2023-01-19T01:53:06.832Z,0.80
2023-01-19T01:56:30.581Z,0.80
2023-01-19T01:59:42.432Z,0.79
2023-01-19T02:06:29.641Z,0.74
2023-01-19T02:09:41.155Z,0.72
2023-01-19T02:12:51.746Z,0.68
2023-01-19T02:15:42.837Z,0.66
2023-01-19T02:18:40.258Z,0.67
2023-01-19T02:21:33.207Z,0.69
2023-01-19T02:24:25.997Z,0.74
2023-01-19T02:27:38.039Z,0.78
2023-01-19T02:30:28.976Z,0.82
2023-01-19T02:33:20.668Z,0.85
2023-01-19T02:36:16.542Z,0.87
2023-01-19T02:39:12.652Z,0.86
2023-01-19T02:42:06.114Z,0.86
2023-01-19T02:45:06.832Z,0.83
2023-01-19T02:48:42.446Z,0.80
2023-01-19T02:51:36.672Z,0.78
2023-01-19T02:58:44.007Z,0.77
2023-01-19T03:02:45.721Z,0.78
2023-01-19T03:09:40.321Z,0.81
2023-01-19T03:13:08.886Z,0.82
2023-01-19T03:16:02.333Z,0.82
2023-01-19T03:18:56.573Z,0.81
2023-01-19T03:22:08.766Z,0.80
2023-01-19T03:25:02.945Z,0.79
2023-01-19T03:27:59.746Z,0.76
2023-01-19T03:31:13.341Z,0.75
2023-01-19T03:34:06.817Z,0.75
2023-01-19T03:37:20.587Z,0.76
2023-01-19T03:40:13.051Z,0.78
2023-01-19T03:43:07.780Z,0.80
2023-01-19T03:45:58.948Z,0.82
2023-01-19T03:48:51.131Z,0.83
2023-01-19T03:51:42.314Z,0.85
2023-01-19T03:54:36.771Z,0.85
2023-01-19T03:57:28.408Z,0.83
2023-01-19T04:00:22.703Z,0.81
2023-01-19T04:03:15.352Z,0.78
2023-01-19T04:06:06.798Z,0.75
2023-01-19T04:08:59.925Z,0.73
2023-01-19T04:11:52.241Z,0.70
2023-01-19T04:14:42.658Z,0.66
2023-01-19T04:17:34.535Z,0.63
2023-01-19T04:20:28.625Z,0.61
2023-01-19T04:23:19.916Z,0.61
2023-01-19T04:26:10.657Z,0.62
2023-01-19T04:29:01.389Z,0.64
2023-01-19T04:32:12.564Z,0.67
2023-01-19T04:35:03.191Z,0.69
2023-01-19T04:37:55.001Z,0.69
2023-01-19T04:40:46.754Z,0.69
2023-01-19T04:43:40.981Z,0.68
2023-01-19T04:46:32.084Z,0.64
2023-01-19T04:49:23.862Z,0.61
2023-01-19T04:52:14.350Z,0.56
2023-01-19T04:55:05.041Z,0.52
2023-01-19T04:57:55.736Z,0.47
2023-01-19T05:00:46.490Z,0.41
2023-01-19T05:03:38.552Z,0.33
2023-01-19T05:06:29.320Z,0.25
2023-01-19T05:09:19.854Z,0.17
2023-01-19T05:12:11.069Z,0.10
2023-01-19T05:15:04.000Z,0.03
2023-01-19T05:17:58.203Z,-0.06
2023-01-19T05:20:49.053Z,-0.11
2023-01-19T05:23:42.231Z,-0.15
2023-01-19T05:26:32.720Z,-0.19
2023-01-19T05:29:23.845Z,-0.21
2023-01-19T05:32:14.904Z,-0.21
2023-01-19T05:35:08.786Z,-0.21
2023-01-19T05:38:02.115Z,-0.20
2023-01-19T05:40:57.654Z,-0.18
2023-01-19T05:43:47.950Z,-0.17
2023-01-19T05:46:40.286Z,-0.15
2023-01-19T05:49:31.546Z,-0.16
2023-01-19T05:52:31.469Z,-0.18
2023-01-19T05:55:26.235Z,-0.21
2023-01-19T05:58:18.706Z,-0.25
2023-01-19T06:01:10.684Z,-0.28
2023-01-19T06:04:01.744Z,-0.33
2023-01-19T06:06:52.642Z,-0.39
2023-01-19T06:09:43.236Z,-0.45
2023-01-19T06:12:35.097Z,-0.51
2023-01-19T06:15:29.095Z,-0.59
2023-01-19T06:18:20.747Z,-0.64
2023-01-19T06:21:13.771Z,-0.70
2023-01-19T06:24:26.474Z,-0.75
2023-01-19T06:27:22.879Z,-0.78
2023-01-19T06:30:15.469Z,-0.80
2023-01-19T06:33:06.816Z,-0.81
2023-01-19T06:35:59.974Z,-0.81
2023-01-19T06:38:50.462Z,-0.81
2023-01-19T06:41:41.074Z,-0.79
2023-01-19T06:44:34.050Z,-0.76
2023-01-19T06:47:24.680Z,-0.73
2023-01-19T06:50:17.161Z,-0.71
2023-01-19T06:53:11.559Z,-0.69
2023-01-19T06:56:22.186Z,-0.65
2023-01-19T06:59:13.594Z,-0.63
2023-01-19T07:02:26.489Z,-0.58
2023-01-19T07:05:18.589Z,-0.48
2023-01-19T07:08:12.746Z,-0.38
2023-01-19T07:11:26.724Z,-0.29
2023-01-19T07:14:18.865Z,-0.17
2023-01-19T07:17:09.418Z,-0.06
2023-01-19T07:20:02.056Z,0.05
2023-01-19T07:22:56.698Z,0.12
2023-01-19T07:25:47.992Z,0.18
2023-01-19T07:28:38.488Z,0.24
2023-01-19T07:31:51.863Z,0.29
2023-01-19T07:34:43.210Z,0.32
2023-01-19T07:37:33.711Z,0.35
2023-01-19T07:40:24.265Z,0.37
2023-01-19T07:43:14.988Z,0.40
2023-01-19T07:46:07.328Z,0.44
2023-01-19T07:48:57.826Z,0.50
2023-01-19T07:51:48.239Z,0.55
2023-01-19T07:54:39.311Z,0.61
2023-01-19T07:57:30.119Z,0.67
2023-01-19T08:00:26.393Z,0.73
2023-01-19T08:03:19.663Z,0.79
2023-01-19T08:06:36.369Z,0.83
2023-01-19T08:09:30.272Z,0.87
2023-01-19T08:12:20.558Z,0.88
2023-01-19T08:15:12.868Z,0.88
2023-01-19T08:18:05.864Z,0.87
2023-01-19T08:20:56.327Z,0.86
2023-01-19T08:23:53.694Z,0.85
2023-01-19T08:26:46.551Z,0.83
2023-01-19T08:29:37.801Z,0.80
2023-01-19T08:32:28.382Z,0.78
2023-01-19T08:35:18.948Z,0.76
2023-01-19T08:38:10.850Z,0.74
2023-01-19T08:41:01.526Z,0.76
2023-01-19T08:43:52.167Z,0.79
2023-01-19T08:50:47.113Z,0.90
2023-01-19T08:53:40.120Z,0.98
2023-01-19T08:56:30.698Z,1.06
2023-01-19T08:59:21.438Z,1.12
2023-01-19T09:02:12.929Z,1.18
2023-01-19T09:05:06.167Z,1.23
2023-01-19T09:07:57.831Z,1.28
2023-01-19T09:10:49.515Z,1.32
2023-01-19T09:13:40.337Z,1.36
2023-01-19T09:16:35.868Z,1.40
2023-01-19T09:19:27.776Z,1.43
2023-01-19T09:22:18.367Z,1.48
2023-01-19T09:25:09.953Z,1.55
2023-01-19T09:28:02.797Z,1.63
2023-01-19T09:30:53.905Z,1.71
2023-01-19T09:33:44.624Z,1.82
2023-01-19T09:36:35.303Z,1.90
2023-01-19T09:39:27.775Z,1.96
2023-01-19T09:42:23.405Z,1.94
2023-01-19T09:45:19.337Z,1.90
2023-01-19T09:48:42.405Z,1.83
2023-01-19T09:51:36.497Z,1.72
2023-01-19T09:54:31.376Z,1.63
2023-01-19T09:57:41.484Z,1.55
2023-01-19T10:00:32.846Z,1.48
2023-01-19T10:03:25.298Z,1.45
2023-01-19T10:06:18.266Z,1.44
2023-01-19T10:09:13.057Z,1.45
2023-01-19T10:12:11.818Z,1.48
2023-01-19T10:15:06.914Z,1.53
2023-01-19T10:21:23.376Z,1.67
2023-01-19T10:24:21.864Z,1.70
2023-01-19T10:27:14.892Z,1.72
2023-01-19T10:30:11.511Z,1.73
2023-01-19T10:33:03.913Z,1.73
2023-01-19T10:35:55.007Z,1.74
2023-01-19T10:38:48.918Z,1.75
2023-01-19T10:41:42.662Z,1.75
2023-01-19T10:44:42.834Z,1.76
2023-01-19T10:47:36.285Z,1.80
2023-01-19T10:50:29.114Z,1.83
2023-01-19T10:53:22.341Z,1.89
2023-01-19T10:56:18.224Z,1.99
2023-01-19T10:59:09.002Z,2.16
2023-01-19T11:02:07.079Z,2.44
2023-01-19T11:04:58.948Z,2.82
2023-01-19T11:07:56.406Z,3.20
2023-01-19T11:14:33.209Z,3.92
2023-01-19T11:17:25.413Z,4.12
2023-01-19T11:20:21.675Z,4.29
2023-01-19T11:23:34.213Z,4.35
2023-01-19T11:26:29.382Z,4.29
2023-01-19T11:29:26.030Z,4.20
2023-01-19T11:32:22.520Z,4.09
2023-01-19T11:35:34.493Z,3.99
2023-01-19T11:38:27.301Z,3.89
2023-01-19T11:41:20.033Z,3.81
2023-01-19T11:52:52.330Z,4.26
2023-01-19T11:55:46.831Z,7.11
2023-01-19T11:58:39.182Z,10.28
2023-01-19T12:01:32.846Z,12.96
2023-01-19T12:04:27.731Z,15.10
2023-01-19T12:07:41.173Z,16.95
2023-01-19T12:10:36.765Z,18.05
2023-01-19T12:13:28.861Z,18.60
2023-01-19T12:16:47.334Z,17.86
2023-01-19T12:19:42.458Z,16.28
2023-01-19T12:22:38.875Z,15.50
2023-01-19T12:29:56.037Z,18.57
2023-01-19T12:32:51.377Z,19.09
2023-01-19T12:43:35.377Z,14.14
2023-01-19T12:46:29.733Z,12.55
2023-01-19T12:55:00.124Z,11.45
2023-01-19T12:57:54.053Z,12.10
2023-01-19T13:05:18.273Z,12.63
2023-01-19T13:12:48.123Z,13.15
2023-01-19T13:16:01.495Z,13.51
2023-01-19T13:18:53.215Z,13.57
2023-01-19T13:21:58.577Z,13.49
2023-01-19T13:32:35.857Z,13.73
2023-01-19T13:35:27.480Z,13.81
2023-01-19T13:38:18.349Z,13.89
2023-01-19T13:41:12.424Z,13.50
2023-01-19T13:44:03.889Z,12.18
2023-01-19T13:47:00.058Z,10.84
2023-01-19T13:50:20.608Z,9.73
2023-01-19T13:53:17.729Z,8.86
2023-01-19T13:56:09.127Z,8.16
2023-01-19T13:59:05.744Z,7.61
2023-01-19T14:01:56.105Z,7.12
2023-01-19T14:04:46.764Z,6.76
2023-01-19T14:07:37.195Z,6.45
2023-01-19T14:10:27.887Z,6.20
2023-01-19T14:13:24.271Z,5.96
2023-01-19T14:16:16.909Z,5.75
2023-01-19T14:19:07.956Z,5.58
2023-01-19T14:22:03.061Z,5.40
2023-01-19T14:24:53.527Z,5.24
2023-01-19T14:27:43.871Z,5.11
2023-01-19T14:30:36.892Z,4.99
2023-01-19T14:33:42.052Z,4.90
2023-01-19T14:36:36.269Z,4.82
2023-01-19T14:39:28.373Z,4.74
2023-01-19T14:42:21.631Z,4.66
2023-01-19T14:45:17.401Z,4.62
2023-01-19T14:48:17.883Z,4.60
2023-01-19T14:51:08.752Z,4.59
2023-01-19T14:54:01.118Z,4.58
2023-01-19T14:56:54.709Z,4.57
2023-01-19T14:59:49.771Z,4.56
2023-01-19T15:02:40.098Z,4.57
2023-01-19T15:05:30.806Z,4.55
2023-01-19T15:08:25.262Z,4.53
2023-01-19T15:11:21.382Z,4.50
2023-01-19T15:14:13.519Z,4.48
2023-01-19T15:17:03.856Z,4.46
2023-01-19T15:19:55.622Z,4.41
2023-01-19T15:22:46.413Z,4.36
2023-01-19T15:25:36.918Z,4.31
2023-01-19T15:28:27.619Z,4.25
2023-01-19T15:31:19.091Z,4.19
2023-01-19T15:34:11.397Z,4.12
2023-01-19T15:37:01.742Z,4.06
2023-01-19T15:39:51.994Z,4.01
2023-01-19T15:42:43.988Z,3.96
2023-01-19T15:45:37.957Z,3.89
2023-01-19T15:48:28.426Z,3.84
2023-01-19T15:51:20.984Z,3.79
2023-01-19T15:54:13.623Z,3.74
2023-01-19T15:57:03.920Z,3.70
2023-01-19T15:59:54.365Z,3.66
2023-01-19T16:02:45.374Z,3.64
2023-01-19T16:05:43.064Z,3.62
2023-01-19T16:08:33.929Z,3.61
2023-01-19T16:11:24.354Z,3.60
2023-01-19T16:14:17.357Z,3.59
2023-01-19T16:17:10.319Z,3.58
2023-01-19T16:20:00.673Z,3.54
2023-01-19T16:22:51.147Z,3.51
2023-01-19T16:25:41.548Z,3.46
2023-01-19T16:28:32.543Z,3.39
2023-01-19T16:31:22.935Z,3.33
2023-01-19T16:34:14.701Z,3.24
2023-01-19T16:37:05.137Z,3.17
2023-01-19T16:39:55.466Z,3.10
2023-01-19T16:42:48.283Z,3.03
2023-01-19T16:45:55.986Z,2.96
2023-01-19T16:48:46.553Z,2.89
2023-01-19T16:51:36.964Z,2.82
2023-01-19T16:54:28.451Z,2.76
2023-01-19T16:57:18.968Z,2.71
2023-01-19T17:00:13.187Z,2.65
2023-01-19T17:03:03.794Z,2.62
2023-01-19T17:05:54.180Z,2.59
2023-01-19T17:08:45.033Z,2.58
2023-01-19T17:11:35.283Z,2.57
2023-01-19T17:14:26.189Z,2.56
2023-01-19T17:17:16.703Z,2.55
2023-01-19T17:20:09.833Z,2.54
2023-01-19T17:23:00.619Z,2.52
2023-01-19T17:25:54.983Z,2.51
2023-01-19T17:28:45.778Z,2.49
2023-01-19T17:31:37.430Z,2.44
2023-01-19T17:34:27.836Z,2.40
2023-01-19T17:37:18.339Z,2.34
2023-01-19T17:40:12.381Z,2.28
2023-01-19T17:43:03.069Z,2.22
2023-01-19T17:45:53.523Z,2.16
2023-01-19T17:48:44.740Z,2.10
2023-01-19T17:51:35.253Z,2.05
2023-01-19T17:54:25.842Z,1.99
2023-01-19T17:57:16.325Z,1.94
2023-01-19T18:00:07.534Z,1.88
2023-01-19T18:03:02.819Z,1.83
2023-01-19T18:05:56.798Z,1.79
2023-01-19T18:08:48.318Z,1.75
2023-01-19T18:11:38.917Z,1.73
2023-01-19T18:14:29.377Z,1.72
2023-01-19T18:17:20.403Z,1.72
2023-01-19T18:20:14.342Z,1.70
2023-01-19T18:23:08.423Z,1.69
2023-01-19T18:26:03.205Z,1.68
2023-01-19T18:29:00.750Z,1.66
2023-01-19T18:31:51.165Z,1.62
2023-01-19T18:34:42.078Z,1.59
2023-01-19T18:37:33.382Z,1.57
2023-01-19T18:40:24.094Z,1.54
2023-01-19T18:43:15.209Z,1.51
2023-01-19T18:46:06.406Z,1.49
2023-01-19T18:48:57.256Z,1.47
2023-01-19T18:51:50.411Z,1.43
2023-01-19T18:54:40.912Z,1.39
2023-01-19T18:57:31.411Z,1.36
2023-01-19T19:00:22.394Z,1.34
2023-01-19T19:03:12.938Z,1.32
2023-01-19T19:06:04.782Z,1.29
2023-01-19T19:08:56.525Z,1.26
2023-01-19T19:11:47.081Z,1.24
2023-01-19T19:14:37.506Z,1.23
2023-01-19T19:17:28.079Z,1.24
2023-01-19T19:20:19.661Z,1.25
2023-01-19T19:23:11.004Z,1.25
2023-01-19T19:26:05.250Z,1.25
2023-01-19T19:28:55.480Z,1.24
2023-01-19T19:31:46.432Z,1.24
2023-01-19T19:34:37.495Z,1.25
2023-01-19T19:37:29.636Z,1.26
2023-01-19T19:40:20.388Z,1.27
2023-01-19T19:43:10.949Z,1.29
2023-01-19T19:46:02.285Z,1.29
2023-01-19T19:48:53.320Z,1.29
2023-01-19T19:51:44.121Z,1.30
2023-01-19T19:54:34.735Z,1.29
2023-01-19T19:57:25.231Z,1.28
2023-01-19T20:00:16.210Z,1.26
2023-01-19T20:03:13.508Z,1.23
2023-01-19T20:06:06.001Z,1.19
2023-01-19T20:08:57.174Z,1.15
2023-01-19T20:11:49.195Z,1.10
2023-01-19T20:14:39.534Z,1.05
2023-01-19T20:17:30.142Z,1.02
2023-01-19T20:20:20.587Z,1.01
2023-01-19T20:23:11.125Z,1.00
2023-01-19T20:26:04.954Z,1.00
2023-01-19T20:28:55.816Z,1.01
2023-01-19T20:31:47.317Z,1.03
2023-01-19T20:34:38.666Z,1.04
2023-01-19T20:37:29.253Z,1.03
2023-01-19T20:40:19.780Z,1.02
2023-01-19T20:43:10.161Z,0.99
2023-01-19T20:46:00.927Z,0.95
2023-01-19T20:48:53.770Z,0.90
2023-01-19T20:51:46.818Z,0.86
2023-01-19T20:54:38.007Z,0.81
2023-01-19T20:57:29.015Z,0.77
2023-01-19T21:00:20.229Z,0.73
2023-01-19T21:03:10.696Z,0.69
2023-01-19T21:06:01.149Z,0.65
2023-01-19T21:08:52.161Z,0.62
2023-01-19T21:11:42.810Z,0.61
2023-01-19T21:14:35.969Z,0.62
2023-01-19T21:17:26.672Z,0.62
2023-01-19T21:20:18.335Z,0.64
2023-01-19T21:23:08.933Z,0.67
2023-01-19T21:26:01.251Z,0.70
2023-01-19T21:28:51.854Z,0.72
2023-01-19T21:31:43.280Z,0.74
2023-01-19T21:34:33.913Z,0.76
2023-01-19T21:37:24.425Z,0.78
2023-01-19T21:40:15.526Z,0.78
2023-01-19T21:43:06.209Z,0.78
2023-01-19T21:45:56.864Z,0.78
2023-01-19T21:48:47.533Z,0.76
2023-01-19T21:51:38.360Z,0.73
2023-01-19T21:54:28.891Z,0.70
2023-01-19T21:57:19.864Z,0.68
2023-01-19T22:00:12.148Z,0.67
2023-01-19T22:03:04.464Z,0.66
2023-01-19T22:05:55.991Z,0.64
2023-01-19T22:08:48.402Z,0.64
2023-01-19T22:11:38.935Z,0.63
2023-01-19T22:14:29.921Z,0.64
2023-01-19T22:17:20.403Z,0.65
2023-01-19T22:20:11.973Z,0.65
2023-01-19T22:23:02.637Z,0.66
2023-01-19T22:25:53.178Z,0.67
2023-01-19T22:28:43.730Z,0.66
2023-01-19T22:31:34.485Z,0.63
2023-01-19T22:34:25.156Z,0.60
2023-01-19T22:37:17.021Z,0.55
2023-01-19T22:40:08.620Z,0.51
2023-01-19T22:42:59.275Z,0.46
2023-01-19T22:45:50.027Z,0.42
2023-01-19T22:48:41.417Z,0.37
2023-01-19T22:51:32.499Z,0.34
2023-01-19T22:54:23.822Z,0.31
2023-01-19T22:57:14.281Z,0.28
2023-01-19T23:00:05.460Z,0.26
2023-01-19T23:02:55.710Z,0.24
2023-01-19T23:05:46.499Z,0.23
2023-01-19T23:08:37.086Z,0.25
2023-01-19T23:11:28.668Z,0.27
2023-01-19T23:14:22.761Z,0.27
2023-01-19T23:17:13.248Z,0.28
2023-01-19T23:20:05.076Z,0.29
2023-01-19T23:22:55.561Z,0.29
2023-01-19T23:25:45.939Z,0.27
2023-01-19T23:28:36.885Z,0.25
2023-01-19T23:31:28.273Z,0.23
2023-01-19T23:34:19.077Z,0.22
2023-01-19T23:37:09.631Z,0.22
2023-01-19T23:40:00.011Z,0.23
2023-01-19T23:42:50.589Z,0.24
2023-01-19T23:45:44.230Z,0.25
2023-01-19T23:48:35.126Z,0.26
2023-01-19T23:51:26.115Z,0.27
2023-01-19T23:54:16.618Z,0.28
2023-01-19T23:57:06.963Z,0.28
2023-01-19T23:59:57.364Z,0.27
